Data for 08/19/2005

Time Sea-Level Adjusted Pressure Absolute Pressure Temperature Relative Humidity Dew Point   
(mb) (inHg) (mb) (inHg) (C) (F) (%) (C) (F)
00:05 1017 30.03 847 25.01 12.8 55 81 9.6 49.3
00:10 1017 30.03 847 25.01 12.7 54.9 81 9.6 49.3
00:15 1018 30.06 847 25.01 12.6 54.7 82 9.6 49.4
00:20 1018 30.06 847 25.01 12.6 54.6 82 9.7 49.4
00:25 1018 30.06 847 25.01 12.6 54.6 82 9.7 49.4
00:30 1018 30.06 847 25.01 12.6 54.6 83 9.8 49.6
00:35 1018 30.06 847 25.01 12.6 54.6 83 9.8 49.6
00:40 1018 30.06 847 25.01 12.5 54.4 84 9.8 49.6
00:45 1018 30.06 847 25.01 12.4 54.4 84 9.8 49.6
00:50 1018 30.06 847 25.01 12.4 54.2 83 9.7 49.4
00:55 1018 30.06 847 25.01 12.4 54.2 84 9.7 49.5
01:00 1018 30.06 847 25.01 12.3 54.1 84 9.7 49.5
01:05 1018 30.06 847 25.01 12.2 54 84 9.6 49.3
01:10 1018 30.06 847 25.01 12.2 54 83 9.5 49.2
01:15 1018 30.06 847 25.01 12.3 54.1 83 9.5 49
01:20 1018 30.06 847 25.01 12.3 54.2 83 9.5 49
01:25 1018 30.06 847 25.01 12.3 54.1 82 9.4 48.9
01:30 1018 30.06 847 25.01 12.3 54.1 83 9.4 48.9
01:35 1018 30.06 847 25.01 12.2 54 83 9.4 48.9
01:40 1018 30.06 847 25.01 12.2 54 83 9.4 48.9
01:45 1018 30.06 847 25.01 12.2 54 83 9.4 48.9
01:50 1018 30.06 847 25.01 12.1 53.8 84 9.4 49
01:55 1018 30.06 847 25.01 12.1 53.8 83 9.4 48.9
02:00 1018 30.06 847 25.01 12.1 53.7 83 9.3 48.8
02:05 1018 30.06 847 25.01 12.1 53.7 83 9.4 48.8
02:10 1018 30.06 847 25.01 12 53.6 84 9.3 48.8
02:15 1018 30.06 847 25.01 12 53.6 84 9.3 48.8
02:20 1018 30.06 847 25.01 12 53.6 84 9.4 48.8
02:25 1018 30.06 847 25.01 12 53.6 84 9.3 48.8
02:30 1018 30.06 847 25.01 11.9 53.5 84 9.3 48.7
02:35 1018 30.06 847 25.01 11.9 53.5 84 9.3 48.7
02:40 1018 30.06 847 25.01 11.9 53.4 84 9.2 48.6
02:45 1018 30.06 847 25.01 11.9 53.5 83 9.2 48.6
02:50 1018 30.06 847 25.01 11.9 53.5 84 9.3 48.7
02:55 1018 30.06 847 25.01 12 53.5 84 9.3 48.7
03:00 1018 30.06 847 25.01 12 53.5 84 9.3 48.7
03:05 1018 30.06 847 25.01 11.9 53.5 83 9.2 48.5
03:10 1018 30.06 847 25.01 12 53.5 83 9.2 48.5
03:15 1018 30.06 847 25.01 12 53.5 83 9.1 48.5
03:20 1018 30.06 847 25.01 12 53.6 83 9.2 48.6
03:25 1018 30.06 847 25.01 12 53.6 84 9.3 48.7
03:30 1018 30.06 847 25.01 11.8 53.3 85 9.4 48.9
03:35 1018 30.06 847 25.01 11.7 53.1 85 9.3 48.7
03:40 1018 30.06 847 25.01 11.8 53.2 85 9.3 48.7
03:45 1018 30.06 847 25.01 11.8 53.2 84 9.2 48.6
03:50 1018 30.06 847 25.01 11.8 53.2 85 9.3 48.8
03:55 1018 30.06 847 25.01 11.7 53.1 85 9.3 48.7
04:00 1018 30.06 847 25.01 11.6 52.9 86 9.3 48.8
04:05 1018 30.06 847 25.01 11.5 52.7 86 9.3 48.8
04:10 1018 30.06 847 25.01 11.5 52.7 86 9.3 48.7
04:15 1018 30.06 847 25.01 11.5 52.6 86 9.2 48.6
04:20 1018 30.06 847 25.01 11.3 52.3 87 9.2 48.5
04:25 1018 30.06 847 25.01 11.1 52 87 9 48.3
04:30 1018 30.06 847 25.01 10.9 51.6 86 8.7 47.6
04:35 1018 30.06 847 25.01 10.7 51.2 84 8.1 46.6
04:40 1018 30.06 847 25.01 10.7 51.2 82 7.8 46
04:45 1018 30.06 847 25.01 10.7 51.3 82 7.8 46.1
04:50 1018 30.06 847 25.01 10.6 51 82 7.7 45.9
04:55 1018 30.06 847 25.01 10.3 50.6 83 7.6 45.7
05:00 1018 30.06 847 25.01 10.2 50.3 84 7.6 45.6
05:05 1018 30.06 847 25.01 10 50 84 7.5 45.5
05:10 1018 30.06 847 25.01 9.8 49.7 85 7.4 45.4
05:15 1018 30.06 847 25.01 9.7 49.4 86 7.5 45.5
05:20 1018 30.06 847 25.01 9.6 49.3 87 7.6 45.7
05:25 1018 30.06 847 25.01 9.6 49.3 85 7.2 45
05:30 1018 30.06 847 25.01 9.8 49.7 83 7.1 44.8
05:35 1018 30.06 847 25.01 10 49.9 83 7.2 44.9
05:40 1018 30.06 847 25.01 9.9 49.9 83 7.2 44.9
05:45 1018 30.06 848 25.04 9.9 49.9 81 6.8 44.3
05:50 1018 30.06 848 25.04 10 49.9 82 7 44.6
05:55 1018 30.06 848 25.04 9.8 49.7 85 7.5 45.5
06:00 1018 30.06 848 25.04 9.8 49.6 87 7.6 45.8
06:05 1019 30.09 848 25.04 9.4 48.9 88 7.5 45.4
06:10 1019 30.09 848 25.04 9.1 48.4 89 7.3 45.2
06:15 1019 30.09 848 25.04 9.1 48.3 89 7.4 45.3
06:20 1019 30.09 848 25.04 9.1 48.3 89 7.4 45.3
06:25 1019 30.09 848 25.04 9 48.3 89 7.4 45.3
06:30 1019 30.09 848 25.04 9 48.1 89 7.2 44.9
06:35 1019 30.09 848 25.04 9.1 48.4 87 7.1 44.7
06:40 1019 30.09 848 25.04 9.3 48.7 86 7.1 44.8
06:45 1019 30.09 848 25.04 9.2 48.6 86 6.9 44.5
06:50 1019 30.09 848 25.04 9.2 48.5 85 6.9 44.3
06:55 1019 30.09 848 25.04 9.1 48.4 85 6.8 44.3
07:00 1019 30.09 848 25.04 9.2 48.6 84 6.7 44
07:05 1019 30.09 848 25.04 9.4 48.8 83 6.7 44
07:10 1019 30.09 848 25.04 9.5 49.1 82 6.7 44
07:15 1019 30.09 848 25.04 9.6 49.2 82 6.6 43.8
07:20 1019 30.09 848 25.04 9.5 49.2 82 6.6 43.8
07:25 1019 30.09 848 25.04 9.6 49.3 81 6.5 43.6
07:30 1019 30.09 848 25.04 9.9 49.7 80 6.6 43.8
07:35 1019 30.09 848 25.04 9.8 49.7 81 6.7 44
07:40 1019 30.09 848 25.04 10 50.1 79 6.6 44
07:45 1019 30.09 848 25.04 10.1 50.3 80 6.9 44.4
07:50 1019 30.09 848 25.04 10.1 50.3 81 7.1 44.8
07:55 1019 30.09 848 25.04 10.7 51.3 80 7.4 45.2
08:00 1019 30.09 848 25.04 10.8 51.5 78 7.2 45
08:05 1019 30.09 848 25.04 10.7 51.2 79 7.2 45
08:10 1019 30.09 849 25.07 10.6 51.1 79 7.2 45
08:15 1019 30.09 849 25.07 11 51.8 78 7.4 45.3
08:20 1019 30.09 849 25.07 11.5 52.6 76 7.4 45.4
08:25 1019 30.09 849 25.07 11.9 53.4 72 6.9 44.5
08:30 1019 30.09 849 25.07 12 53.6 71 6.9 44.3
08:35 1019 30.09 849 25.07 12.2 53.9 71 7.1 44.7
08:40 1019 30.09 849 25.07 12.9 55.2 68 7.1 44.8
08:45 1019 30.09 849 25.07 13.4 56.1 65 6.9 44.4
08:50 1019 30.09 849 25.07 13.6 56.5 63 6.9 44.4
08:55 1019 30.09 849 25.07 13.5 56.3 62 6.4 43.5
09:00 1020 30.12 849 25.07 13.7 56.6 62 6.6 43.9
09:05 1020 30.12 849 25.07 14.4 58 57 6.2 43.2
09:10 1020 30.12 849 25.07 15.2 59.4 55 6.4 43.6
09:15 1019 30.09 849 25.07 15.8 60.4 54 6.7 44
09:20 1019 30.09 849 25.07 15.7 60.2 54 6.6 43.9
09:25 1019 30.09 849 25.07 15.5 59.9 55 6.6 44
09:30 1019 30.09 849 25.07 15.4 59.6 55 6.5 43.7
09:35 1019 30.09 849 25.07 15.3 59.6 55 6.5 43.6
09:40 1019 30.09 849 25.07 15.9 60.7 53 6.5 43.6
09:45 1019 30.09 849 25.07 16.3 61.3 52 6.6 43.9
09:50 1019 30.09 849 25.07 16.7 62 53 7.3 45.1
09:55 1019 30.09 849 25.07 16.8 62.3 52 6.9 44.4
10:00 1019 30.09 849 25.07 17.2 63 52 7.4 45.3
10:05 1019 30.09 849 25.07 17.4 63.2 50 6.8 44.3
10:10 1019 30.09 849 25.07 17 62.5 52 7.1 44.8
10:15 1019 30.09 849 25.07 16.8 62.2 52 6.9 44.5
10:20 1019 30.09 849 25.07 17.2 63 52 7.5 45.5
10:25 1019 30.09 849 25.07 16.7 62.1 52 7 44.5
10:30 1019 30.09 849 25.07 17.6 63.6 49 6.8 44.2
10:35 1019 30.09 849 25.07 18.2 64.7 47 6.8 44.3
10:40 1019 30.09 849 25.07 18 64.4 48 7.1 44.7
10:45 1019 30.09 849 25.07 18.2 64.8 47 6.8 44.2
10:50 1019 30.09 849 25.07 18.6 65.5 43 6 42.8
10:55 1019 30.09 849 25.07 18.8 65.8 42 5.9 42.6
11:00 1019 30.09 849 25.07 18.8 65.8 46 7 44.6
11:05 1019 30.09 849 25.07 18.6 65.5 44 6.3 43.3
11:10 1019 30.09 849 25.07 18.6 65.5 46 7 44.7
11:15 1019 30.09 849 25.07 18.5 65.2 46 6.8 44.3
11:20 1019 30.09 849 25.07 18.3 65 46 6.5 43.7
11:25 1019 30.09 849 25.07 18.8 65.8 46 7.1 44.8
11:30 1019 30.09 848 25.04 18.6 65.5 43 6 42.9
11:35 1019 30.09 848 25.04 19 66.3 42 6 42.9
11:40 1019 30.09 848 25.04 19.7 67.5 41 6.4 43.5
11:45 1019 30.09 848 25.04 20.1 68.2 40 6.3 43.4
11:50 1019 30.09 848 25.04 19.9 67.7 41 6.3 43.4
11:55 1019 30.09 848 25.04 19.8 67.7 41 6.2 43.2
12:00 1019 30.09 848 25.04 20.2 68.3 38 5.7 42.2
12:05 1019 30.09 848 25.04 20.2 68.4 38 5.6 42
12:10 1019 30.09 848 25.04 20.1 68.2 39 5.7 42.3
12:15 1019 30.09 848 25.04 20.1 68.1 38 5.6 42.1
12:20 1019 30.09 848 25.04 20.7 69.2 39 6.3 43.4
12:25 1019 30.09 848 25.04 20.7 69.3 39 6.3 43.3
12:30 1019 30.09 848 25.04 21.2 70.2 35 5.5 41.9
12:35 1019 30.09 848 25.04 21.7 71 35 5.7 42.2
12:40 1019 30.09 848 25.04 22 71.6 35 6.2 43.1
12:45 1019 30.09 848 25.04 21.3 70.4 34 5.1 41.3
12:50 1019 30.09 848 25.04 21.4 70.6 35 5.5 41.8
12:55 1019 30.09 848 25.04 21.5 70.7 34 5.2 41.4
13:00 1019 30.09 848 25.04 21.6 70.9 34 5.4 41.8
13:05 1019 30.09 848 25.04 21.4 70.4 35 5.5 41.9
13:10 1019 30.09 848 25.04 21.7 71.1 35 5.7 42.3
13:15 1019 30.09 848 25.04 21.5 70.7 34 5.2 41.4
13:20 1019 30.09 848 25.04 21.5 70.8 35 5.8 42.4
13:25 1019 30.09 848 25.04 21.8 71.3 33 5 40.9
13:30 1019 30.09 848 25.04 22 71.7 33 5.4 41.7
13:35 1019 30.09 848 25.04 22.4 72.3 34 6.2 43.1
13:40 1019 30.09 848 25.04 22.4 72.3 33 5.5 41.9
13:45 1019 30.09 848 25.04 22.3 72.1 32 4.9 40.9
13:50 1019 30.09 848 25.04 22.1 71.9 32 4.9 40.8
13:55 1019 30.09 848 25.04 21 69.9 34 4.9 40.8
14:00 1019 30.09 848 25.04 21.3 70.4 34 4.8 40.6
14:05 1019 30.09 848 25.04 21.6 70.8 34 5.3 41.6
14:10 1019 30.09 848 25.04 21.3 70.3 35 5.5 42
14:15 1019 30.09 848 25.04 21.6 70.9 34 5.4 41.8
14:20 1019 30.09 848 25.04 21.9 71.4 33 5.2 41.4
14:25 1019 30.09 848 25.04 23.1 73.6 31 5.1 41.1
14:30 1019 30.09 848 25.04 22.9 73.2 31 4.9 40.8
14:35 1019 30.09 848 25.04 23.1 73.5 32 5.8 42.5
14:40 1019 30.09 848 25.04 22.7 72.9 31 5 41.1
14:45 1019 30.09 848 25.04 22.9 73.3 32 5.4 41.8
14:50 1019 30.09 848 25.04 23 73.4 32 5.4 41.7
14:55 1019 30.09 848 25.04 22.3 72.2 32 4.9 40.8
15:00 1019 30.09 848 25.04 22.5 72.6 31 4.6 40.2
15:05 1019 30.09 848 25.04 23 73.5 29 4.5 40.1
15:10 1019 30.09 848 25.04 23.3 74 31 5.3 41.5
15:15 1019 30.09 848 25.04 22.5 72.5 32 5.1 41.2
15:20 1019 30.09 848 25.04 23.2 73.7 29 4.1 39.4
15:25 1019 30.09 848 25.04 23.5 74.3 29 4.8 40.6
15:30 1019 30.09 848 25.04 23.4 74.2 29 4.8 40.6
15:35 1019 30.09 848 25.04 24 75.1 27 4.3 39.7
15:40 1019 30.09 848 25.04 24.1 75.4 27 4.3 39.8
15:45 1018 30.06 848 25.04 24.1 75.3 27 4.3 39.7
15:50 1018 30.06 848 25.04 23.5 74.4 28 4.2 39.6
15:55 1018 30.06 848 25.04 24.1 75.4 27 4 39.2
16:00 1018 30.06 848 25.04 24.1 75.4 27 4.2 39.6
16:05 1018 30.06 848 25.04 23.2 73.8 28 4 39.2
16:10 1018 30.06 848 25.04 23.3 74 27 3.6 38.5
16:15 1018 30.06 848 25.04 24 75.3 26 3.8 38.9
16:20 1018 30.06 848 25.04 24.7 76.4 25 3.4 38.1
16:25 1018 30.06 847 25.01 24.2 75.5 25 3.4 38.1
16:30 1018 30.06 847 25.01 24.2 75.5 26 3.6 38.5
16:35 1018 30.06 847 25.01 24.4 75.8 25 3.2 37.7
16:40 1018 30.06 847 25.01 25.2 77.4 24 3.4 38.2
16:45 1018 30.06 847 25.01 24.9 76.8 23 2.7 36.9
16:50 1018 30.06 847 25.01 24.7 76.5 23 2.3 36.1
16:55 1018 30.06 847 25.01 24.8 76.7 23 2.3 36.2
17:00 1018 30.06 848 25.04 24 75.2 25 3.2 37.7
17:05 1018 30.06 848 25.04 24.6 76.2 24 3.1 37.6
17:10 1018 30.06 847 25.01 24.1 75.4 24 2.4 36.3
17:15 1018 30.06 847 25.01 24 75.1 24 2.3 36.1
17:20 1018 30.06 847 25.01 23.3 73.9 24 1.9 35.4
17:25 1018 30.06 847 25.01 23.7 74.7 23 1.4 34.6
17:30 1018 30.06 848 25.04 23.8 74.8 24 2 35.5
17:35 1018 30.06 848 25.04 23.2 73.8 23 1.2 34.2
17:40 1018 30.06 847 25.01 23.5 74.3 22 0.8 33.4
17:45 1018 30.06 847 25.01 24.2 75.5 21 0.4 32.8
17:50 1018 30.06 847 25.01 23.9 75 22 1.2 34.2
17:55 1018 30.06 847 25.01 23.8 74.8 21 0.5 33
18:00 1018 30.06 847 25.01 24.6 76.3 20 0.7 33.3
18:05 1018 30.06 847 25.01 24.3 75.8 21 1.2 34.1
18:10 1018 30.06 847 25.01 23.8 74.9 22 1.1 33.9
18:15 1018 30.06 847 25.01 23.9 75.1 21 0.2 32.4
18:20 1018 30.06 847 25.01 24 75.2 22 1.4 34.5
18:25 1018 30.06 847 25.01 24 75.2 21 0.4 32.7
18:30 1018 30.06 847 25.01 24.2 75.5 21 0.8 33.4
18:35 1018 30.06 847 25.01 24.2 75.5 20 0.4 32.6
18:40 1018 30.06 847 25.01 24.1 75.4 21 0.5 32.9
18:45 1018 30.06 847 25.01 23.6 74.5 21 0.4 32.7
18:50 1018 30.06 847 25.01 23.3 74 22 0.4 32.8
18:55 1018 30.06 847 25.01 23.2 73.8 22 0.5 32.9
19:00 1018 30.06 847 25.01 23.5 74.3 22 0.8 33.4
19:05 1018 30.06 847 25.01 23.5 74.3 22 0.8 33.4
19:10 1018 30.06 847 25.01 23.3 73.9 23 1.1 34
19:15 1018 30.06 847 25.01 23.1 73.6 22 0.4 32.8
19:20 1018 30.06 847 25.01 23.1 73.5 22 0.7 33.2
19:25 1018 30.06 847 25.01 23 73.4 22 0.6 33.1
19:30 1018 30.06 847 25.01 23 73.3 22 0.6 33.1
19:35 1018 30.06 848 25.04 22.9 73.2 23 0.6 33.1
19:40 1018 30.06 848 25.04 22.7 72.9 23 0.7 33.2
19:45 1018 30.06 848 25.04 22.7 72.9 23 0.9 33.6
19:50 1018 30.06 848 25.04 22.7 72.9 23 0.8 33.5
19:55 1018 30.06 848 25.04 22.6 72.6 26 2.5 36.5
20:00 1018 30.06 848 25.04 22.4 72.3 31 4.4 40
20:05 1018 30.06 848 25.04 21.9 71.4 29 3.3 37.9
20:10 1018 30.06 848 25.04 21.7 71.1 32 4.3 39.8
20:15 1018 30.06 848 25.04 21.4 70.5 33 4.8 40.6
20:20 1018 30.06 848 25.04 20.9 69.7 37 6 42.8
20:25 1018 30.06 848 25.04 20.8 69.4 36 5.5 41.8
20:30 1018 30.06 848 25.04 20.1 68.2 43 7.4 45.3
20:35 1019 30.09 848 25.04 19.2 66.5 45 7 44.7
20:40 1019 30.09 848 25.04 18.4 65.2 45 6.5 43.7
20:45 1019 30.09 848 25.04 17.9 64.3 45 5.8 42.5
20:50 1019 30.09 848 25.04 17.9 64.2 44 5.7 42.2
20:55 1019 30.09 848 25.04 17.4 63.3 47 6.1 43
21:00 1019 30.09 848 25.04 16.9 62.4 48 6 42.8
21:05 1019 30.09 848 25.04 16.5 61.8 49 5.8 42.5
21:10 1019 30.09 848 25.04 16.2 61.2 52 6.3 43.4
21:15 1019 30.09 848 25.04 15.9 60.6 51 5.8 42.4
21:20 1019 30.09 848 25.04 15.8 60.4 48 4.9 40.8
21:25 1019 30.09 848 25.04 15.6 60.1 46 4.2 39.6
21:30 1019 30.09 848 25.04 15.6 60 46 4.2 39.6
21:35 1019 30.09 848 25.04 15.5 60 44 3.5 38.4
21:40 1019 30.09 848 25.04 15.8 60.5 44 3.6 38.6
21:45 1019 30.09 848 25.04 15.8 60.5 44 3.9 39
21:50 1019 30.09 848 25.04 15.9 60.7 43 3.4 38.1
21:55 1019 30.09 849 25.07 15.9 60.6 43 3.5 38.3
22:00 1019 30.09 849 25.07 15.9 60.7 42 3.2 37.8
22:05 1019 30.09 849 25.07 16 60.8 42 3.2 37.8
22:10 1019 30.09 849 25.07 15.8 60.4 43 3.3 38
22:15 1019 30.09 849 25.07 15.7 60.2 44 3.5 38.3
22:20 1019 30.09 849 25.07 15.2 59.4 46 3.8 38.8
22:25 1019 30.09 849 25.07 15 58.9 46 3.6 38.5
22:30 1020 30.12 849 25.07 14.9 58.9 46 3.6 38.5
22:35 1020 30.12 849 25.07 15 59 44 3 37.5
22:40 1020 30.12 849 25.07 15.4 59.7 42 2.8 37
22:45 1020 30.12 849 25.07 15.4 59.8 42 2.7 36.9
22:50 1020 30.12 849 25.07 15.5 60 40 2.2 36
22:55 1020 30.12 849 25.07 15.8 60.4 40 2.3 36.1
23:00 1020 30.12 849 25.07 15.8 60.4 40 2.3 36.2
23:05 1020 30.12 849 25.07 15.8 60.5 39 2.2 35.9
23:10 1020 30.12 849 25.07 15.8 60.4 40 2.5 36.4
23:15 1020 30.12 849 25.07 15.4 59.7 43 3 37.5
23:20 1020 30.12 849 25.07 14.8 58.7 43 2.6 36.6
23:25 1020 30.12 849 25.07 15 58.9 43 2.7 36.8
23:30 1020 30.12 849 25.07 15 58.9 42 2.4 36.2
23:35 1020 30.12 849 25.07 15 59 43 2.6 36.7
23:40 1020 30.12 849 25.07 15 59.1 42 2.4 36.2
23:45 1020 30.12 850 25.1 15.1 59.3 40 1.9 35.4
23:50 1020 30.12 850 25.1 15 59.1 45 3.4 38.2
23:55 1020 30.12 850 25.1 14.4 57.9 48 3.5 38.2
24:00 1020 30.12 850 25.1 14 57.2 49 3.7 38.6